Time;durP1;ratioP1;P1;durP2;ratioP2;P2;SDS_P1;SDS_P2;PMS_P1;PMS_P2;Temp;Humidity;BMP_temperature;BMP_pressure;BME280_temperature;BME280_humidity;BME280_pressure;Samples;Min_cycle;Max_cycle;Signal;HPM_P1;HPM_P2
2021/01/22 00:01:00;;;;;;;;;;;22.20;31.30;;;;;;482754;247;1197;-69
2021/01/22 00:03:01;;;;;;;;;;;22.20;31.30;;;;;;482663;247;1261;-69
2021/01/22 00:05:03;;;;;;;;;;;22.20;31.40;;;;;;482713;247;1130;-68
2021/01/22 00:07:04;;;;;;;;;;;22.20;31.30;;;;;;482765;247;1311;-69
2021/01/22 00:09:05;;;;;;;;;;;22.20;31.30;;;;;;482651;247;1126;-68
2021/01/22 00:11:07;;;;;;;;;;;22.20;31.30;;;;;;482690;247;1113;-69
2021/01/22 00:13:08;;;;;;;;;;;22.20;31.20;;;;;;482636;247;2189;-68
2021/01/22 00:15:09;;;;;;;;;;;22.20;31.20;;;;;;482711;247;1201;-68
2021/01/22 00:17:10;;;;;;;;;;;22.20;31.20;;;;;;482703;247;1180;-68
2021/01/22 00:19:12;;;;;;;;;;;22.20;31.20;;;;;;482722;247;1134;-69
2021/01/22 00:21:13;;;;;;;;;;;22.20;31.10;;;;;;482772;247;1163;-69
2021/01/22 00:23:14;;;;;;;;;;;22.20;31.00;;;;;;482760;247;1061;-69
2021/01/22 00:25:15;;;;;;;;;;;22.20;31.20;;;;;;482709;247;1147;-69
2021/01/22 00:27:17;;;;;;;;;;;22.20;31.30;;;;;;482721;247;1198;-68
2021/01/22 00:29:18;;;;;;;;;;;22.20;31.30;;;;;;482676;247;1112;-69
2021/01/22 00:31:19;;;;;;;;;;;22.20;31.30;;;;;;482739;247;1191;-68
2021/01/22 00:33:21;;;;;;;;;;;22.30;31.40;;;;;;482624;247;2125;-68
2021/01/22 00:35:22;;;;;;;;;;;22.20;31.40;;;;;;482721;247;1102;-68
2021/01/22 00:37:23;;;;;;;;;;;22.20;31.40;;;;;;482668;244;1235;-68
2021/01/22 00:39:24;;;;;;;;;;;22.20;31.40;;;;;;482698;247;1019;-68
2021/01/22 00:41:26;;;;;;;;;;;22.20;31.40;;;;;;482700;247;1089;-68
2021/01/22 00:43:27;;;;;;;;;;;22.10;31.40;;;;;;482701;247;1115;-68
2021/01/22 00:45:28;;;;;;;;;;;22.20;31.40;;;;;;482794;247;1185;-68
2021/01/22 00:47:30;;;;;;;;;;;22.10;31.40;;;;;;482776;247;1063;-68
2021/01/22 00:49:31;;;;;;;;;;;22.10;31.40;;;;;;482716;247;1020;-68
2021/01/22 00:51:32;;;;;;;;;;;22.10;31.40;;;;;;482676;247;1065;-68
2021/01/22 00:53:33;;;;;;;;;;;22.10;31.40;;;;;;482724;247;2137;-68
2021/01/22 00:55:35;;;;;;;;;;;22.10;31.30;;;;;;482781;247;1172;-68
2021/01/22 00:57:36;;;;;;;;;;;22.10;31.40;;;;;;482710;247;1101;-69
2021/01/22 00:59:37;;;;;;;;;;;22.10;31.40;;;;;;482663;247;1227;-68
2021/01/22 01:01:38;;;;;;;;;;;22.10;31.40;;;;;;482695;247;1201;-69
2021/01/22 01:03:40;;;;;;;;;;;22.10;31.30;;;;;;482712;247;1181;-68
2021/01/22 01:05:41;;;;;;;;;;;22.10;31.30;;;;;;482668;247;990;-68
2021/01/22 01:07:42;;;;;;;;;;;22.10;31.30;;;;;;482690;247;1191;-68
2021/01/22 01:09:44;;;;;;;;;;;22.10;31.30;;;;;;482742;247;1201;-68
2021/01/22 01:11:45;;;;;;;;;;;22.20;31.30;;;;;;482615;247;1208;-69
2021/01/22 01:13:46;;;;;;;;;;;22.20;31.20;;;;;;482704;247;2145;-69
2021/01/22 01:15:47;;;;;;;;;;;22.30;31.10;;;;;;482749;247;1153;-68
2021/01/22 01:17:49;;;;;;;;;;;22.30;31.00;;;;;;482672;247;981;-69
2021/01/22 01:19:50;;;;;;;;;;;22.30;31.00;;;;;;482660;247;1125;-68
2021/01/22 01:21:51;;;;;;;;;;;22.40;31.00;;;;;;482685;247;1024;-68
2021/01/22 01:23:53;;;;;;;;;;;22.40;30.90;;;;;;482738;247;1044;-68
2021/01/22 01:25:54;;;;;;;;;;;22.40;30.90;;;;;;482791;247;970;-69
2021/01/22 01:27:55;;;;;;;;;;;22.40;30.80;;;;;;482722;247;1188;-68
2021/01/22 01:29:56;;;;;;;;;;;22.40;30.70;;;;;;482718;247;1111;-69
2021/01/22 01:31:58;;;;;;;;;;;22.40;30.80;;;;;;482654;247;1197;-68
2021/01/22 01:33:59;;;;;;;;;;;22.50;30.90;;;;;;482788;247;2180;-68
2021/01/22 01:36:01;;;;;;;;;;;22.50;30.90;;;;;;482767;247;1084;-68
2021/01/22 01:38:02;;;;;;;;;;;22.50;30.90;;;;;;482733;247;1201;-68
2021/01/22 01:40:04;;;;;;;;;;;22.50;31.00;;;;;;482743;247;1010;-68
2021/01/22 01:42:05;;;;;;;;;;;22.50;30.90;;;;;;482701;247;1152;-69
2021/01/22 01:44:06;;;;;;;;;;;22.50;30.80;;;;;;482719;247;989;-68
2021/01/22 01:46:08;;;;;;;;;;;22.60;30.80;;;;;;482729;247;1209;-68
2021/01/22 01:48:09;;;;;;;;;;;22.60;30.80;;;;;;482697;247;1108;-68
2021/01/22 01:50:10;;;;;;;;;;;22.60;30.80;;;;;;482716;247;1025;-69
2021/01/22 01:52:11;;;;;;;;;;;22.60;30.80;;;;;;482725;247;1178;-68
2021/01/22 01:54:13;;;;;;;;;;;22.60;30.80;;;;;;482765;247;2184;-68
2021/01/22 01:56:14;;;;;;;;;;;22.60;30.80;;;;;;482726;247;998;-68
2021/01/22 01:58:15;;;;;;;;;;;22.60;30.80;;;;;;482746;247;970;-69
2021/01/22 02:00:18;;;;;;;;;;;22.60;30.80;;;;;;482713;247;1043;-69
2021/01/22 02:02:19;;;;;;;;;;;22.60;30.80;;;;;;482720;247;1193;-68
2021/01/22 02:04:20;;;;;;;;;;;22.60;30.80;;;;;;482745;247;1004;-69
2021/01/22 02:06:21;;;;;;;;;;;22.60;30.80;;;;;;482722;247;977;-68
2021/01/22 02:08:23;;;;;;;;;;;22.60;30.80;;;;;;482763;247;998;-68
2021/01/22 02:10:24;;;;;;;;;;;22.70;30.80;;;;;;482742;247;1043;-68
2021/01/22 02:12:25;;;;;;;;;;;22.60;30.70;;;;;;482723;247;1009;-69
2021/01/22 02:14:26;;;;;;;;;;;22.70;30.70;;;;;;482716;247;2188;-68
2021/01/22 02:16:28;;;;;;;;;;;22.70;30.70;;;;;;482777;247;1152;-68
2021/01/22 02:18:30;;;;;;;;;;;22.80;30.70;;;;;;482774;247;1023;-69
2021/01/22 02:20:31;;;;;;;;;;;22.90;30.60;;;;;;482729;247;1071;-68
2021/01/22 02:22:32;;;;;;;;;;;22.80;30.70;;;;;;482685;247;1131;-68
2021/01/22 02:24:34;;;;;;;;;;;22.80;30.70;;;;;;482640;247;1348;-68
2021/01/22 02:26:35;;;;;;;;;;;22.80;30.70;;;;;;482739;247;1026;-69
2021/01/22 02:28:36;;;;;;;;;;;22.80;30.70;;;;;;482726;247;1187;-68
2021/01/22 02:30:37;;;;;;;;;;;22.80;30.70;;;;;;482690;247;1180;-68
2021/01/22 02:32:39;;;;;;;;;;;22.80;30.70;;;;;;482722;247;1202;-68
2021/01/22 02:34:40;;;;;;;;;;;22.90;30.70;;;;;;482692;247;2145;-68
2021/01/22 02:36:41;;;;;;;;;;;22.90;30.70;;;;;;482747;247;971;-69
2021/01/22 02:38:43;;;;;;;;;;;22.90;30.60;;;;;;482680;247;1131;-68
2021/01/22 02:40:44;;;;;;;;;;;22.90;30.60;;;;;;482728;247;936;-69
2021/01/22 02:42:45;;;;;;;;;;;22.90;30.60;;;;;;482751;247;1134;-68
2021/01/22 02:44:46;;;;;;;;;;;22.90;30.60;;;;;;482685;247;1093;-69
2021/01/22 02:46:48;;;;;;;;;;;22.90;30.60;;;;;;482689;247;1306;-68
2021/01/22 02:48:49;;;;;;;;;;;23.30;30.10;;;;;;482731;247;1045;-68
2021/01/22 02:50:50;;;;;;;;;;;23.20;30.30;;;;;;482680;247;1068;-68
2021/01/22 02:52:51;;;;;;;;;;;23.10;30.30;;;;;;482700;247;979;-68
2021/01/22 02:54:53;;;;;;;;;;;23.10;30.30;;;;;;482689;247;2173;-70
2021/01/22 02:56:54;;;;;;;;;;;23.10;30.40;;;;;;482673;247;988;-68
2021/01/22 02:58:55;;;;;;;;;;;23.10;30.50;;;;;;482684;247;974;-69
2021/01/22 03:00:56;;;;;;;;;;;23.10;30.50;;;;;;482736;247;1139;-69
2021/01/22 03:02:58;;;;;;;;;;;23.00;30.50;;;;;;482685;247;1568;-68
2021/01/22 03:04:59;;;;;;;;;;;23.00;30.50;;;;;;482681;243;1222;-68
2021/01/22 03:07:00;;;;;;;;;;;23.00;30.60;;;;;;482746;247;1044;-68
2021/01/22 03:09:02;;;;;;;;;;;23.00;30.50;;;;;;482728;247;1088;-68
2021/01/22 03:11:03;;;;;;;;;;;23.00;30.60;;;;;;482741;247;1171;-68
2021/01/22 03:13:04;;;;;;;;;;;23.00;30.50;;;;;;482760;247;1039;-68
2021/01/22 03:15:05;;;;;;;;;;;23.00;30.60;;;;;;482680;247;2137;-69
2021/01/22 03:17:07;;;;;;;;;;;23.10;30.60;;;;;;482663;247;1166;-68
2021/01/22 03:19:08;;;;;;;;;;;23.10;30.50;;;;;;482719;247;1241;-68
2021/01/22 03:21:10;;;;;;;;;;;23.00;30.40;;;;;;482740;247;1335;-68
2021/01/22 03:23:11;;;;;;;;;;;23.10;30.40;;;;;;482741;247;1227;-68
2021/01/22 03:25:13;;;;;;;;;;;23.10;30.50;;;;;;482702;247;1280;-68
2021/01/22 03:27:15;;;;;;;;;;;23.10;30.50;;;;;;482764;247;964;-68
2021/01/22 03:29:15;;;;;;;;;;;23.10;30.60;;;;;;482710;247;2260;-68
2021/01/22 03:31:16;;;;;;;;;;;23.10;30.60;;;;;;482698;247;1049;-69
2021/01/22 03:33:17;;;;;;;;;;;23.10;30.60;;;;;;482706;247;1282;-69
2021/01/22 03:35:19;;;;;;;;;;;23.00;30.60;;;;;;482679;247;2185;-68
2021/01/22 03:37:20;;;;;;;;;;;23.10;30.60;;;;;;482773;247;947;-68
2021/01/22 03:39:21;;;;;;;;;;;23.10;30.60;;;;;;482764;247;1107;-69
2021/01/22 03:41:23;;;;;;;;;;;23.10;30.60;;;;;;482756;247;1170;-68
2021/01/22 03:43:24;;;;;;;;;;;23.00;30.60;;;;;;482693;247;989;-68
2021/01/22 03:45:25;;;;;;;;;;;23.10;30.60;;;;;;482714;247;1115;-68
2021/01/22 03:47:26;;;;;;;;;;;23.00;30.60;;;;;;482709;247;1192;-68
2021/01/22 03:49:28;;;;;;;;;;;23.10;30.60;;;;;;482749;247;1309;-68
2021/01/22 03:51:30;;;;;;;;;;;23.10;30.70;;;;;;482788;247;1248;-69
2021/01/22 03:53:31;;;;;;;;;;;23.00;30.60;;;;;;482695;247;1147;-68
2021/01/22 03:55:32;;;;;;;;;;;23.00;30.70;;;;;;482759;247;2196;-68
2021/01/22 03:57:33;;;;;;;;;;;23.00;30.60;;;;;;482750;247;1148;-68
2021/01/22 03:59:35;;;;;;;;;;;23.10;30.60;;;;;;482742;247;1214;-68
2021/01/22 04:01:36;;;;;;;;;;;23.20;30.50;;;;;;482637;247;1157;-68
2021/01/22 04:03:37;;;;;;;;;;;23.10;30.50;;;;;;482695;247;1177;-69
2021/01/22 04:05:38;;;;;;;;;;;23.20;30.50;;;;;;482756;247;1225;-68
2021/01/22 04:07:40;;;;;;;;;;;23.10;30.50;;;;;;482723;247;1106;-69
2021/01/22 04:09:41;;;;;;;;;;;23.10;30.50;;;;;;482764;247;980;-69
2021/01/22 04:11:42;;;;;;;;;;;23.10;30.50;;;;;;482667;247;1169;-68
2021/01/22 04:13:44;;;;;;;;;;;23.20;30.60;;;;;;482664;247;1006;-69
2021/01/22 04:15:46;;;;;;;;;;;23.20;30.50;;;;;;482676;247;2188;-68
2021/01/22 04:17:47;;;;;;;;;;;23.20;30.60;;;;;;482655;247;2377;-68
2021/01/22 04:19:48;;;;;;;;;;;23.20;30.60;;;;;;482737;247;992;-68
2021/01/22 04:21:49;;;;;;;;;;;23.20;30.50;;;;;;482706;247;1217;-68
2021/01/22 04:23:51;;;;;;;;;;;23.20;30.50;;;;;;482718;247;1008;-69
2021/01/22 04:25:52;;;;;;;;;;;23.30;30.50;;;;;;482780;247;964;-68
2021/01/22 04:27:53;;;;;;;;;;;23.30;30.50;;;;;;482649;247;1185;-68
2021/01/22 04:29:54;;;;;;;;;;;23.30;30.60;;;;;;482648;247;996;-68
2021/01/22 04:31:56;;;;;;;;;;;23.30;30.50;;;;;;482686;247;1233;-68
2021/01/22 04:33:57;;;;;;;;;;;23.40;30.40;;;;;;482726;247;1187;-69
2021/01/22 04:35:58;;;;;;;;;;;23.40;30.20;;;;;;482687;247;2145;-68
2021/01/22 04:38:00;;;;;;;;;;;23.40;30.30;;;;;;482706;247;951;-68
2021/01/22 04:40:01;;;;;;;;;;;23.40;30.40;;;;;;482623;247;1201;-68
2021/01/22 04:42:02;;;;;;;;;;;23.40;30.60;;;;;;482665;247;1011;-69
2021/01/22 04:44:03;;;;;;;;;;;23.50;30.60;;;;;;482658;247;1121;-68
2021/01/22 04:46:05;;;;;;;;;;;23.50;30.60;;;;;;482729;247;975;-68
2021/01/22 04:48:06;;;;;;;;;;;23.50;30.60;;;;;;482696;247;1175;-68
2021/01/22 04:50:07;;;;;;;;;;;23.50;30.50;;;;;;482799;247;1126;-68
2021/01/22 04:52:08;;;;;;;;;;;24.00;30.00;;;;;;482738;247;1260;-69
2021/01/22 04:54:10;;;;;;;;;;;24.20;30.00;;;;;;482720;247;1088;-68
2021/01/22 04:56:11;;;;;;;;;;;24.10;30.00;;;;;;482732;247;2137;-69
2021/01/22 04:58:12;;;;;;;;;;;24.10;30.00;;;;;;482774;247;1154;-68
2021/01/22 05:00:14;;;;;;;;;;;24.00;30.00;;;;;;482755;247;1068;-68
2021/01/22 05:02:15;;;;;;;;;;;24.00;30.00;;;;;;482760;247;1288;-69
2021/01/22 05:04:17;;;;;;;;;;;24.00;30.10;;;;;;482706;247;1207;-68
2021/01/22 05:06:17;;;;;;;;;;;23.90;30.10;;;;;;482739;247;2132;-69
2021/01/22 05:08:19;;;;;;;;;;;23.90;30.20;;;;;;482715;247;1066;-68
2021/01/22 05:10:20;;;;;;;;;;;23.90;30.20;;;;;;482782;247;1090;-68
2021/01/22 05:12:21;;;;;;;;;;;23.90;30.30;;;;;;482765;247;958;-68
2021/01/22 05:14:22;;;;;;;;;;;23.80;30.30;;;;;;482734;247;1031;-68
2021/01/22 05:16:24;;;;;;;;;;;23.90;30.30;;;;;;482686;247;2189;-68
2021/01/22 05:18:25;;;;;;;;;;;23.90;30.30;;;;;;482686;247;1318;-68
2021/01/22 05:20:26;;;;;;;;;;;23.90;30.40;;;;;;482749;247;1059;-68
2021/01/22 05:22:28;;;;;;;;;;;23.90;30.30;;;;;;482638;247;1248;-68
2021/01/22 05:24:29;;;;;;;;;;;23.90;30.30;;;;;;482682;247;992;-69
2021/01/22 05:26:30;;;;;;;;;;;24.00;30.40;;;;;;482604;247;1105;-68
2021/01/22 05:28:32;;;;;;;;;;;23.90;30.30;;;;;;482644;247;1073;-68
2021/01/22 05:30:33;;;;;;;;;;;23.90;30.40;;;;;;482652;247;1208;-68
2021/01/22 05:32:34;;;;;;;;;;;23.90;30.40;;;;;;482629;247;1196;-68
2021/01/22 05:34:35;;;;;;;;;;;24.00;30.40;;;;;;482609;247;1237;-68
2021/01/22 05:36:37;;;;;;;;;;;24.00;30.30;;;;;;482572;247;2129;-68
2021/01/22 05:38:38;;;;;;;;;;;24.00;30.00;;;;;;482544;247;1089;-68
2021/01/22 05:40:39;;;;;;;;;;;24.00;30.20;;;;;;482646;247;1077;-68
2021/01/22 05:42:41;;;;;;;;;;;24.00;30.30;;;;;;482653;247;1299;-68
2021/01/22 05:44:42;;;;;;;;;;;24.00;30.40;;;;;;482563;247;1200;-68
2021/01/22 05:46:43;;;;;;;;;;;24.00;30.40;;;;;;482620;247;1006;-68
2021/01/22 05:48:44;;;;;;;;;;;24.00;30.40;;;;;;482548;247;1235;-68
2021/01/22 05:50:46;;;;;;;;;;;24.00;30.50;;;;;;482601;247;1027;-68
2021/01/22 05:52:47;;;;;;;;;;;23.90;30.50;;;;;;482589;247;987;-68
2021/01/22 05:54:48;;;;;;;;;;;23.90;30.60;;;;;;482585;247;1002;-68
2021/01/22 05:56:49;;;;;;;;;;;23.80;30.60;;;;;;482433;247;2388;-68
2021/01/22 05:58:51;;;;;;;;;;;23.90;30.70;;;;;;482482;247;1062;-68
2021/01/22 06:00:52;;;;;;;;;;;23.80;30.70;;;;;;482446;247;1077;-68
2021/01/22 06:02:53;;;;;;;;;;;23.80;30.70;;;;;;482498;247;1044;-68
2021/01/22 06:04:55;;;;;;;;;;;23.80;30.70;;;;;;482405;247;1302;-68
2021/01/22 06:06:56;;;;;;;;;;;23.80;30.80;;;;;;482500;247;1033;-68
2021/01/22 06:08:57;;;;;;;;;;;23.80;30.80;;;;;;482545;247;969;-68
2021/01/22 06:10:58;;;;;;;;;;;23.80;30.70;;;;;;482586;247;1052;-68
2021/01/22 06:13:00;;;;;;;;;;;23.90;30.70;;;;;;482585;247;1075;-68
2021/01/22 06:15:01;;;;;;;;;;;23.80;30.70;;;;;;482442;247;2138;-68
2021/01/22 06:17:02;;;;;;;;;;;23.80;30.70;;;;;;482451;247;1251;-69
2021/01/22 06:19:04;;;;;;;;;;;23.80;30.60;;;;;;482423;247;969;-68
2021/01/22 06:21:05;;;;;;;;;;;23.80;30.60;;;;;;482568;247;1210;-68
2021/01/22 06:23:06;;;;;;;;;;;23.90;30.60;;;;;;482539;247;1090;-68
2021/01/22 06:25:08;;;;;;;;;;;23.90;30.60;;;;;;482450;247;1038;-68
2021/01/22 06:27:09;;;;;;;;;;;23.90;30.60;;;;;;482363;247;1192;-68
2021/01/22 06:29:10;;;;;;;;;;;23.80;30.60;;;;;;482429;247;1223;-68
2021/01/22 06:31:12;;;;;;;;;;;23.70;30.70;;;;;;482455;247;1126;-68
2021/01/22 06:33:13;;;;;;;;;;;23.80;30.70;;;;;;482535;247;1114;-68
2021/01/22 06:35:14;;;;;;;;;;;23.80;30.70;;;;;;482514;247;2157;-68
2021/01/22 06:37:15;;;;;;;;;;;23.70;30.70;;;;;;482429;247;1112;-68
2021/01/22 06:39:17;;;;;;;;;;;23.70;30.70;;;;;;482466;244;1111;-68
2021/01/22 06:41:18;;;;;;;;;;;23.70;30.80;;;;;;482584;247;1057;-68
2021/01/22 06:43:19;;;;;;;;;;;23.70;30.70;;;;;;482402;247;1332;-68
2021/01/22 06:45:21;;;;;;;;;;;23.70;30.50;;;;;;482478;247;1181;-68
2021/01/22 06:47:22;;;;;;;;;;;23.80;30.50;;;;;;482445;247;1326;-68
2021/01/22 06:49:23;;;;;;;;;;;23.80;30.50;;;;;;482410;247;1135;-68
2021/01/22 06:51:24;;;;;;;;;;;23.80;30.60;;;;;;482466;247;1164;-68
2021/01/22 06:53:26;;;;;;;;;;;23.80;30.60;;;;;;482280;247;1140;-68
2021/01/22 06:55:27;;;;;;;;;;;23.70;30.70;;;;;;482434;247;2201;-68
2021/01/22 06:57:28;;;;;;;;;;;23.70;30.70;;;;;;482423;247;1008;-68
2021/01/22 06:59:29;;;;;;;;;;;23.80;30.60;;;;;;482409;247;1012;-68
2021/01/22 07:01:31;;;;;;;;;;;23.70;30.70;;;;;;482413;247;1060;-69
2021/01/22 07:03:32;;;;;;;;;;;23.70;30.70;;;;;;482358;247;1065;-68
2021/01/22 07:05:33;;;;;;;;;;;23.60;30.80;;;;;;482293;247;1193;-68
2021/01/22 07:07:35;;;;;;;;;;;23.60;30.80;;;;;;482147;247;1037;-68
2021/01/22 07:09:36;;;;;;;;;;;23.60;30.90;;;;;;482301;247;1105;-68
2021/01/22 07:11:37;;;;;;;;;;;23.60;30.90;;;;;;482293;247;1050;-68
2021/01/22 07:13:38;;;;;;;;;;;23.50;30.90;;;;;;482347;247;1029;-68
2021/01/22 07:15:40;;;;;;;;;;;23.60;30.90;;;;;;482307;247;2177;-69
2021/01/22 07:17:41;;;;;;;;;;;23.50;30.90;;;;;;482237;247;1070;-68
2021/01/22 07:19:42;;;;;;;;;;;23.50;31.00;;;;;;482193;247;1130;-68
2021/01/22 07:21:44;;;;;;;;;;;23.60;30.90;;;;;;482134;247;1194;-69
2021/01/22 07:23:45;;;;;;;;;;;23.70;30.70;;;;;;482248;247;1148;-68
2021/01/22 07:25:46;;;;;;;;;;;23.70;30.70;;;;;;482239;247;1073;-69
2021/01/22 07:27:48;;;;;;;;;;;23.70;30.70;;;;;;482248;247;1080;-69
2021/01/22 07:29:49;;;;;;;;;;;23.70;30.80;;;;;;482314;247;1137;-68
2021/01/22 07:31:50;;;;;;;;;;;23.60;30.80;;;;;;482322;247;1141;-68
2021/01/22 07:33:52;;;;;;;;;;;23.60;30.80;;;;;;482246;247;1142;-68
2021/01/22 07:35:53;;;;;;;;;;;23.60;30.80;;;;;;482261;247;2149;-68
2021/01/22 07:37:54;;;;;;;;;;;23.50;30.70;;;;;;482261;247;1053;-68
2021/01/22 07:39:55;;;;;;;;;;;23.50;30.70;;;;;;482327;247;1017;-68
2021/01/22 07:41:57;;;;;;;;;;;23.50;30.90;;;;;;482210;247;1089;-68
2021/01/22 07:43:58;;;;;;;;;;;23.50;30.90;;;;;;482262;247;1063;-68
2021/01/22 07:45:59;;;;;;;;;;;23.50;30.90;;;;;;482235;247;1039;-68
2021/01/22 07:48:00;;;;;;;;;;;23.50;31.00;;;;;;482184;247;1025;-68
2021/01/22 07:50:02;;;;;;;;;;;23.50;31.10;;;;;;482254;247;1145;-68
2021/01/22 07:52:03;;;;;;;;;;;23.50;31.10;;;;;;482262;247;1193;-68
2021/01/22 07:54:04;;;;;;;;;;;23.60;31.00;;;;;;482230;247;1205;-68
2021/01/22 07:56:06;;;;;;;;;;;23.60;30.80;;;;;;482164;247;2197;-68
2021/01/22 07:58:07;;;;;;;;;;;23.60;30.90;;;;;;482041;247;1163;-68
2021/01/22 08:00:08;;;;;;;;;;;23.60;31.00;;;;;;482146;247;1022;-68
2021/01/22 08:02:09;;;;;;;;;;;23.60;31.00;;;;;;482127;247;1072;-68
2021/01/22 08:04:11;;;;;;;;;;;23.50;31.00;;;;;;482181;247;1074;-68
2021/01/22 08:06:12;;;;;;;;;;;23.60;31.10;;;;;;482114;247;1196;-69
2021/01/22 08:08:13;;;;;;;;;;;23.50;31.10;;;;;;482081;247;1060;-69
2021/01/22 08:10:14;;;;;;;;;;;23.60;31.10;;;;;;482067;247;1164;-68
2021/01/22 08:12:16;;;;;;;;;;;23.50;31.10;;;;;;482040;247;1115;-68
2021/01/22 08:14:17;;;;;;;;;;;23.50;31.20;;;;;;482166;247;1137;-69
2021/01/22 08:16:18;;;;;;;;;;;23.50;31.20;;;;;;482043;247;2177;-69
2021/01/22 08:18:20;;;;;;;;;;;23.50;31.20;;;;;;481993;247;1031;-69
2021/01/22 08:20:21;;;;;;;;;;;23.50;31.10;;;;;;482108;245;1229;-68
2021/01/22 08:22:22;;;;;;;;;;;23.60;31.20;;;;;;482229;247;1291;-68
2021/01/22 08:24:23;;;;;;;;;;;23.60;31.10;;;;;;481976;247;1188;-68
2021/01/22 08:26:26;;;;;;;;;;;23.60;31.10;;;;;;482137;247;1318;-69
2021/01/22 08:28:27;;;;;;;;;;;23.70;31.10;;;;;;482073;247;2185;-68
2021/01/22 08:30:28;;;;;;;;;;;23.80;31.00;;;;;;482094;247;1324;-68
2021/01/22 08:32:29;;;;;;;;;;;23.90;30.80;;;;;;481997;247;1220;-68
2021/01/22 08:34:30;;;;;;;;;;;23.80;30.80;;;;;;482048;247;1326;-69
2021/01/22 08:36:32;;;;;;;;;;;23.90;30.90;;;;;;482025;247;2171;-68
2021/01/22 08:38:33;;;;;;;;;;;23.80;31.10;;;;;;481863;247;1110;-68
2021/01/22 08:40:34;;;;;;;;;;;23.80;31.10;;;;;;482119;247;1286;-68
2021/01/22 08:42:36;;;;;;;;;;;23.90;31.10;;;;;;481917;247;1077;-68
2021/01/22 08:44:37;;;;;;;;;;;24.00;31.00;;;;;;481828;247;2325;-69
2021/01/22 08:46:38;;;;;;;;;;;24.00;30.90;;;;;;482175;247;1054;-68
2021/01/22 08:48:39;;;;;;;;;;;24.00;30.80;;;;;;482080;247;1131;-68
2021/01/22 08:50:41;;;;;;;;;;;24.00;30.70;;;;;;482038;247;1104;-69
2021/01/22 08:52:42;;;;;;;;;;;24.00;30.70;;;;;;482133;247;1225;-69
2021/01/22 08:54:43;;;;;;;;;;;24.00;30.60;;;;;;482086;247;1060;-68
2021/01/22 08:56:44;;;;;;;;;;;23.90;30.50;;;;;;482149;247;2169;-69
2021/01/22 08:58:46;;;;;;;;;;;23.90;30.40;;;;;;482099;247;1084;-68
2021/01/22 09:00:47;;;;;;;;;;;23.90;30.30;;;;;;482036;247;1077;-68
2021/01/22 09:02:48;;;;;;;;;;;23.80;30.10;;;;;;482045;247;1132;-69
2021/01/22 09:04:49;;;;;;;;;;;23.80;30.10;;;;;;482127;247;1223;-68
2021/01/22 09:06:51;;;;;;;;;;;23.80;30.00;;;;;;482078;245;1258;-69
2021/01/22 09:08:53;;;;;;;;;;;23.70;30.00;;;;;;482126;247;1043;-68
2021/01/22 09:10:54;;;;;;;;;;;23.70;30.00;;;;;;482104;247;2044;-69
2021/01/22 09:12:55;;;;;;;;;;;23.60;29.90;;;;;;482135;247;1055;-69
2021/01/22 09:14:56;;;;;;;;;;;23.60;30.00;;;;;;482023;247;1117;-71
2021/01/22 09:16:57;;;;;;;;;;;23.40;30.00;;;;;;482191;247;2184;-68
2021/01/22 09:18:59;;;;;;;;;;;23.30;30.00;;;;;;482175;247;1049;-68
2021/01/22 09:21:00;;;;;;;;;;;23.20;30.20;;;;;;482070;247;1066;-68
2021/01/22 09:23:01;;;;;;;;;;;23.00;30.20;;;;;;482079;246;1312;-68
2021/01/22 09:25:02;;;;;;;;;;;22.90;30.20;;;;;;482013;247;1062;-68
2021/01/22 09:27:04;;;;;;;;;;;22.80;30.30;;;;;;482021;247;1035;-68
2021/01/22 09:29:07;;;;;;;;;;;22.70;30.30;;;;;;481938;247;1045;-68
2021/01/22 09:31:08;;;;;;;;;;;22.60;30.40;;;;;;482257;247;1052;-68
2021/01/22 09:33:10;;;;;;;;;;;22.60;30.50;;;;;;482165;247;1100;-68
2021/01/22 09:35:11;;;;;;;;;;;22.50;30.50;;;;;;482185;247;2041;-68
2021/01/22 09:37:12;;;;;;;;;;;22.40;30.60;;;;;;482248;247;2197;-68
2021/01/22 09:39:14;;;;;;;;;;;22.30;30.50;;;;;;482310;247;1157;-68
2021/01/22 09:41:15;;;;;;;;;;;22.30;30.60;;;;;;482296;247;1166;-69
2021/01/22 09:43:17;;;;;;;;;;;22.20;30.50;;;;;;482315;247;1039;-68
2021/01/22 09:45:17;;;;;;;;;;;22.30;30.60;;;;;;482109;245;2326;-68
2021/01/22 09:47:19;;;;;;;;;;;22.20;30.50;;;;;;482250;247;1096;-68
2021/01/22 09:49:20;;;;;;;;;;;22.10;30.60;;;;;;482227;247;1036;-68
2021/01/22 09:51:21;;;;;;;;;;;22.00;30.50;;;;;;482137;247;1254;-69
2021/01/22 09:53:22;;;;;;;;;;;22.00;30.60;;;;;;482225;247;1225;-68
2021/01/22 09:55:24;;;;;;;;;;;21.90;30.60;;;;;;481961;247;1278;-68
2021/01/22 09:57:25;;;;;;;;;;;21.90;30.70;;;;;;481981;247;2138;-68
2021/01/22 09:59:26;;;;;;;;;;;21.80;30.70;;;;;;481979;247;1051;-68
2021/01/22 10:01:27;;;;;;;;;;;21.80;30.80;;;;;;482024;247;1305;-68
2021/01/22 10:03:30;;;;;;;;;;;21.70;30.80;;;;;;481953;247;1282;-68
2021/01/22 10:05:31;;;;;;;;;;;21.70;30.90;;;;;;481967;247;1097;-68
2021/01/22 10:07:32;;;;;;;;;;;21.70;30.90;;;;;;481947;247;1211;-68
2021/01/22 10:09:33;;;;;;;;;;;21.70;31.00;;;;;;482076;247;1100;-68
2021/01/22 10:11:35;;;;;;;;;;;21.50;30.90;;;;;;482091;247;1168;-68
2021/01/22 10:13:36;;;;;;;;;;;21.50;31.00;;;;;;482124;247;1076;-69
2021/01/22 10:15:37;;;;;;;;;;;21.50;30.90;;;;;;482127;247;1132;-69
2021/01/22 10:17:39;;;;;;;;;;;21.60;30.80;;;;;;482182;247;2165;-68
2021/01/22 10:19:40;;;;;;;;;;;21.70;30.70;;;;;;482160;247;1349;-68
2021/01/22 10:21:41;;;;;;;;;;;21.70;30.60;;;;;;481971;247;1423;-68
2021/01/22 10:23:42;;;;;;;;;;;21.80;30.50;;;;;;481987;247;1196;-68
2021/01/22 10:25:43;;;;;;;;;;;21.80;30.50;;;;;;481969;247;1226;-68
2021/01/22 10:27:45;;;;;;;;;;;21.80;30.40;;;;;;482144;247;1148;-68
2021/01/22 10:29:46;;;;;;;;;;;21.80;30.30;;;;;;482211;247;1131;-68
2021/01/22 10:31:48;;;;;;;;;;;21.90;30.40;;;;;;482110;247;1272;-68
2021/01/22 10:33:49;;;;;;;;;;;21.90;30.30;;;;;;482160;247;1197;-68
2021/01/22 10:35:50;;;;;;;;;;;21.90;30.30;;;;;;482135;247;1389;-68
2021/01/22 10:37:51;;;;;;;;;;;21.90;30.30;;;;;;482139;244;2181;-68
2021/01/22 10:39:53;;;;;;;;;;;21.90;30.30;;;;;;482130;247;1288;-68
2021/01/22 10:41:54;;;;;;;;;;;21.80;30.30;;;;;;482169;247;1213;-68
2021/01/22 10:43:55;;;;;;;;;;;21.80;30.30;;;;;;482224;247;1063;-68
2021/01/22 10:45:57;;;;;;;;;;;21.80;30.30;;;;;;482259;247;1203;-68
2021/01/22 10:47:58;;;;;;;;;;;21.80;30.40;;;;;;482124;247;2231;-68
2021/01/22 10:49:59;;;;;;;;;;;21.80;30.40;;;;;;481779;247;1092;-68
2021/01/22 10:52:00;;;;;;;;;;;21.80;30.40;;;;;;482062;247;1295;-68
2021/01/22 10:54:02;;;;;;;;;;;21.70;30.40;;;;;;482007;247;1192;-68
2021/01/22 10:56:03;;;;;;;;;;;21.70;30.30;;;;;;481985;247;1157;-68
2021/01/22 10:58:04;;;;;;;;;;;21.70;30.30;;;;;;481973;247;2205;-68
2021/01/22 11:00:06;;;;;;;;;;;21.70;30.40;;;;;;482059;247;1140;-68
2021/01/22 11:02:07;;;;;;;;;;;21.70;30.40;;;;;;482134;247;1167;-68
2021/01/22 11:04:08;;;;;;;;;;;21.70;30.40;;;;;;482003;247;1047;-68
2021/01/22 11:06:09;;;;;;;;;;;21.70;30.50;;;;;;482118;247;1203;-68
2021/01/22 11:08:11;;;;;;;;;;;21.70;30.50;;;;;;482135;247;1181;-69
2021/01/22 11:10:12;;;;;;;;;;;21.70;30.50;;;;;;482154;247;1147;-68
2021/01/22 11:12:15;;;;;;;;;;;21.70;30.40;;;;;;482139;247;1302;-68
2021/01/22 11:14:15;;;;;;;;;;;21.70;30.40;;;;;;482128;247;2282;-68
2021/01/22 11:16:16;;;;;;;;;;;21.70;30.40;;;;;;481986;247;1123;-68
2021/01/22 11:18:17;;;;;;;;;;;21.70;30.50;;;;;;482071;247;2196;-68
2021/01/22 11:20:19;;;;;;;;;;;21.70;30.50;;;;;;482198;247;1122;-68
2021/01/22 11:22:20;;;;;;;;;;;21.60;30.50;;;;;;481974;247;1196;-68
2021/01/22 11:24:23;;;;;;;;;;;21.70;30.60;;;;;;482079;247;2071;-68
2021/01/22 11:26:24;;;;;;;;;;;21.70;30.60;;;;;;482226;247;1717;-68
2021/01/22 11:28:26;;;;;;;;;;;21.60;30.60;;;;;;482278;247;1043;-68
2021/01/22 11:30:27;;;;;;;;;;;21.60;30.70;;;;;;482230;247;1095;-68
2021/01/22 11:32:29;;;;;;;;;;;21.60;30.70;;;;;;482010;247;1141;-68
2021/01/22 11:34:30;;;;;;;;;;;21.60;30.70;;;;;;482022;247;1079;-68
2021/01/22 11:36:31;;;;;;;;;;;21.50;30.70;;;;;;482183;247;1325;-68
2021/01/22 11:38:32;;;;;;;;;;;21.60;30.70;;;;;;482138;247;2118;-69
2021/01/22 11:40:33;;;;;;;;;;;21.50;30.70;;;;;;482187;247;1063;-68
2021/01/22 11:42:35;;;;;;;;;;;21.50;30.70;;;;;;482026;247;1178;-68
2021/01/22 11:44:36;;;;;;;;;;;21.50;30.70;;;;;;482156;247;1154;-68
2021/01/22 11:46:40;;;;;;;;;;;21.50;30.80;;;;;;482175;247;1143;-68
2021/01/22 11:48:39;;;;;;;;;;;21.50;30.80;;;;;;482088;247;2098;-68
2021/01/22 11:50:40;;;;;;;;;;;21.50;30.80;;;;;;482086;247;2213;-68
2021/01/22 11:52:42;;;;;;;;;;;21.50;30.80;;;;;;482254;247;1189;-68
2021/01/22 11:54:43;;;;;;;;;;;21.50;30.80;;;;;;482294;247;1204;-68
2021/01/22 11:56:46;;;;;;;;;;;21.50;30.80;;;;;;482258;247;1093;-68